Sun Peaks, Canada
Current Conditions -  °F | °C
As of 8:00 PM on Sunday 21 Dec 2014 (Local Time) from CYKA Reporting Station
Overcast Overcast  
Wind Chill: 36°   Ceiling: 500
Heat Index: 36°   Visibility: 7mi
Dew Point: 34°   Wind: 2mph
Humidity: 93%   Direction: NA
Pressure: 29.86"   Gusts: NA
Location:  50.88°N, 119.92°W
Report Text: CYKA 220400Z VRB02KT 7SM BKN005 OVC009 02/01 A2986 RMK ST6ST2 SLP126
Loading
Personal Weather Stations






























Interactive Weather Map New forecast layout! Learn more

10-Day Weather Forecast

Advertisements
Track Severe Weather on mobile